Time;durP1;ratioP1;P1;durP2;ratioP2;P2;SDS_P1;SDS_P2;PMS_P1;PMS_P2;Temp;Humidity;BMP_temperature;BMP_pressure;BME280_temperature;BME280_humidity;BME280_pressure;Samples;Min_cycle;Max_cycle;Signal;HPM_P1;HPM_P2
2023/04/25 00:00:26;;;;;;;4.57;4.17;;;12.40;72.90;;;;;;932641;150;27336;-82
2023/04/25 00:02:53;;;;;;;4.33;3.93;;;12.40;73.20;;;;;;932306;150;27470;-81
2023/04/25 00:05:20;;;;;;;4.30;3.87;;;12.40;73.50;;;;;;932058;150;27312;-81
2023/04/25 00:07:46;;;;;;;4.07;3.73;;;12.30;73.70;;;;;;932511;151;27443;-81
2023/04/25 00:10:12;;;;;;;4.20;3.90;;;12.30;73.90;;;;;;935909;151;27369;-80
2023/04/25 00:12:40;;;;;;;4.30;3.60;;;12.30;74.10;;;;;;937554;149;27374;-84
2023/04/25 00:15:06;;;;;;;4.03;3.63;;;12.20;74.30;;;;;;937428;152;27423;-84
2023/04/25 00:17:32;;;;;;;4.87;3.63;;;12.20;74.50;;;;;;937314;152;27376;-85
2023/04/25 00:19:59;;;;;;;3.90;3.60;;;12.20;74.60;;;;;;937145;152;27267;-83
2023/04/25 00:22:25;;;;;;;4.27;3.87;;;12.20;74.80;;;;;;937250;151;27415;-83
2023/04/25 00:24:53;;;;;;;4.37;3.33;;;12.10;74.90;;;;;;929317;153;27389;-82
2023/04/25 00:27:19;;;;;;;3.93;3.53;;;12.10;75.00;;;;;;929573;151;27270;-82
2023/04/25 00:29:45;;;;;;;3.73;3.33;;;12.10;75.10;;;;;;937368;149;27318;-84
2023/04/25 00:32:12;;;;;;;4.30;3.67;;;12.10;75.30;;;;;;924648;152;27334;-81
2023/04/25 00:34:38;;;;;;;3.47;3.17;;;12.10;75.30;;;;;;938993;149;27332;-81
2023/04/25 00:37:05;;;;;;;3.27;2.97;;;12.10;75.40;;;;;;913928;152;27481;-81
2023/04/25 00:39:32;;;;;;;3.23;2.97;;;12.00;75.50;;;;;;919856;151;27393;-79
2023/04/25 00:41:58;;;;;;;3.53;2.97;;;12.00;75.60;;;;;;918666;153;27383;-80
2023/04/25 00:44:26;;;;;;;2.90;2.70;;;12.00;75.70;;;;;;937092;152;27337;-81
2023/04/25 00:46:51;;;;;;;3.37;3.07;;;12.00;75.90;;;;;;937323;150;27477;-79
2023/04/25 00:49:18;;;;;;;3.17;2.97;;;12.00;76.00;;;;;;919368;155;27372;-79
2023/04/25 00:51:45;;;;;;;3.20;2.90;;;11.90;76.10;;;;;;921969;153;27336;-79
2023/04/25 00:54:11;;;;;;;2.80;2.60;;;11.90;76.30;;;;;;918097;155;27470;-79
2023/04/25 00:56:38;;;;;;;4.37;2.60;;;11.90;76.40;;;;;;918619;155;27375;-79
2023/04/25 00:59:04;;;;;;;2.67;2.47;;;11.90;76.60;;;;;;922274;152;27449;-79
2023/04/25 01:01:31;;;;;;;2.87;2.67;;;11.90;76.60;;;;;;929871;153;27322;-79
2023/04/25 01:03:57;;;;;;;2.93;2.73;;;11.90;76.60;;;;;;929588;151;27345;-79
2023/04/25 01:06:24;;;;;;;3.23;2.50;;;11.90;76.70;;;;;;929503;152;27306;-78
2023/04/25 01:08:51;;;;;;;2.77;2.47;;;11.90;76.90;;;;;;936622;149;27504;-79
2023/04/25 01:11:17;;;;;;;2.67;2.47;;;11.90;77.10;;;;;;949152;148;27631;-79
2023/04/25 01:13:44;;;;;;;2.87;2.60;;;11.80;77.10;;;;;;927542;149;27768;-79
2023/04/25 01:16:10;;;;;;;2.50;2.30;;;11.80;77.50;;;;;;938742;150;27376;-78
2023/04/25 01:18:37;;;;;;;2.80;2.60;;;11.80;77.20;;;;;;938769;150;27430;-78
2023/04/25 01:21:13;;;;;;;2.73;2.53;;;11.80;77.40;;;;;;939074;150;27455;-78
2023/04/25 01:23:39;;;;;;;2.77;2.57;;;11.80;77.50;;;;;;943801;148;27315;-79
2023/04/25 01:26:06;;;;;;;3.10;2.80;;;11.80;77.70;;;;;;942811;148;27342;-80
2023/04/25 01:28:32;;;;;;;2.93;2.73;;;11.70;77.80;;;;;;930998;149;27694;-80
2023/04/25 01:30:59;;;;;;;2.90;2.70;;;11.70;78.00;;;;;;940755;149;27369;-84
2023/04/25 01:33:26;;;;;;;3.07;2.80;;;11.70;78.00;;;;;;949394;148;27469;-83
2023/04/25 01:35:52;;;;;;;3.60;3.30;;;11.70;78.30;;;;;;939499;148;27432;-84
2023/04/25 01:38:19;;;;;;;3.10;2.80;;;11.70;78.50;;;;;;934977;149;27366;-83
2023/04/25 01:40:46;;;;;;;3.13;2.93;;;11.70;78.70;;;;;;940050;150;27334;-83
2023/04/25 01:43:14;;;;;;;3.13;2.83;;;11.70;78.80;;;;;;921412;151;27390;-82
2023/04/25 01:45:41;;;;;;;3.57;3.27;;;11.70;79.00;;;;;;942155;149;27322;-81
2023/04/25 01:48:13;;;;;;;3.30;3.10;;;11.60;79.20;;;;;;949244;148;27351;-80
2023/04/25 01:50:40;;;;;;;3.47;3.17;;;11.60;79.20;;;;;;927865;150;27470;-80
2023/04/25 01:53:07;;;;;;;3.23;3.00;;;11.60;79.30;;;;;;956171;147;27342;-80
2023/04/25 01:55:33;;;;;;;4.33;3.30;;;11.60;79.60;;;;;;938507;151;27312;-80
2023/04/25 01:58:00;;;;;;;3.40;3.20;;;11.60;79.70;;;;;;943631;148;27665;-80
2023/04/25 02:00:26;;;;;;;3.73;3.43;;;11.60;80.00;;;;;;926684;150;27422;-80
2023/04/25 02:02:53;;;;;;;3.93;3.30;;;11.60;80.10;;;;;;939696;150;27474;-80
2023/04/25 02:05:20;;;;;;;3.70;3.40;;;11.60;80.20;;;;;;939269;150;27368;-80
2023/04/25 02:07:46;;;;;;;3.97;3.57;;;11.60;80.30;;;;;;931926;149;27499;-80
2023/04/25 02:10:13;;;;;;;4.03;3.73;;;11.60;80.50;;;;;;928819;149;27399;-80
2023/04/25 02:12:39;;;;;;;3.80;3.50;;;11.60;80.70;;;;;;943658;148;27374;-79
2023/04/25 02:15:06;;;;;;;4.00;3.70;;;11.60;80.90;;;;;;943470;148;27357;-79
2023/04/25 02:17:33;;;;;;;4.43;4.03;;;11.60;81.10;;;;;;948140;147;27375;-79
2023/04/25 02:19:59;;;;;;;3.63;3.33;;;11.60;81.70;;;;;;944868;149;27593;-82
2023/04/25 02:22:27;;;;;;;3.50;3.23;;;11.60;81.30;;;;;;944794;149;27313;-82
2023/04/25 02:24:52;;;;;;;4.13;3.73;;;11.60;81.50;;;;;;945055;149;27372;-82
2023/04/25 02:27:19;;;;;;;3.93;3.63;;;11.60;81.60;;;;;;943811;149;27413;-76
2023/04/25 02:29:45;;;;;;;3.50;3.20;;;11.60;81.70;;;;;;944181;148;27367;-75
2023/04/25 02:32:12;;;;;;;4.10;3.70;;;11.60;82.10;;;;;;941888;149;27406;-75
2023/04/25 02:34:39;;;;;;;3.97;3.57;;;11.60;81.90;;;;;;944044;148;27349;-76
2023/04/25 02:37:05;;;;;;;3.87;3.47;;;11.60;82.00;;;;;;941831;149;27365;-76
2023/04/25 02:39:32;;;;;;;4.07;3.77;;;11.60;82.00;;;;;;943138;148;27313;-76
2023/04/25 02:41:58;;;;;;;4.07;3.40;;;11.60;82.10;;;;;;941545;149;27376;-76
2023/04/25 02:44:25;;;;;;;4.10;3.80;;;11.60;82.20;;;;;;941558;149;27691;-76
2023/04/25 02:46:52;;;;;;;3.53;3.23;;;11.60;82.30;;;;;;941949;149;27372;-76
2023/04/25 02:49:18;;;;;;;3.73;3.43;;;11.60;82.30;;;;;;941173;149;27890;-75
2023/04/25 02:51:45;;;;;;;3.87;3.57;;;11.60;82.40;;;;;;943394;148;27302;-75
2023/04/25 02:54:11;;;;;;;3.50;3.20;;;11.60;82.60;;;;;;943413;148;27337;-75
2023/04/25 02:56:38;;;;;;;3.90;3.60;;;11.60;82.50;;;;;;943931;148;27367;-75
2023/04/25 02:59:05;;;;;;;4.10;3.80;;;11.60;82.60;;;;;;941900;149;27371;-76
2023/04/25 03:01:31;;;;;;;4.20;3.90;;;11.60;82.70;;;;;;943964;148;27407;-76
2023/04/25 03:03:58;;;;;;;4.90;4.50;;;11.60;82.80;;;;;;942058;149;27399;-76
2023/04/25 03:06:24;;;;;;;4.50;4.10;;;11.60;83.10;;;;;;941417;149;27329;-78
2023/04/25 03:08:51;;;;;;;4.43;4.03;;;11.60;83.00;;;;;;935364;149;27429;-76
2023/04/25 03:11:20;;;;;;;4.53;4.17;;;11.50;83.00;;;;;;928887;153;27359;-77
2023/04/25 03:13:44;;;;;;;4.40;4.00;;;11.50;83.20;;;;;;926654;151;27361;-76
2023/04/25 03:16:11;;;;;;;4.63;4.17;;;11.50;83.40;;;;;;928281;152;27313;-76
2023/04/25 03:18:37;;;;;;;4.53;4.23;;;11.50;83.50;;;;;;929498;153;27322;-76
2023/04/25 03:21:04;;;;;;;5.10;4.70;;;11.50;83.50;;;;;;936380;151;27429;-76
2023/04/25 03:23:30;;;;;;;4.77;4.23;;;11.50;83.50;;;;;;943357;152;27304;-77
2023/04/25 03:25:57;;;;;;;4.70;4.20;;;11.50;83.60;;;;;;939926;151;27312;-76
2023/04/25 03:28:24;;;;;;;5.37;4.30;;;11.40;83.50;;;;;;939275;149;27238;-77
2023/04/25 03:30:50;;;;;;;5.00;4.50;;;11.40;83.50;;;;;;939046;152;27426;-76
2023/04/25 03:33:17;;;;;;;5.13;4.47;;;11.30;83.60;;;;;;938882;149;27331;-77
2023/04/25 03:35:43;;;;;;;5.03;4.63;;;11.30;83.80;;;;;;929991;154;27302;-76
2023/04/25 03:38:10;;;;;;;5.00;4.50;;;11.30;84.10;;;;;;928308;151;27312;-77
2023/04/25 03:40:36;;;;;;;6.37;4.70;;;11.20;84.30;;;;;;929478;152;27454;-77
2023/04/25 03:43:03;;;;;;;5.73;4.40;;;11.20;84.60;;;;;;940859;152;27342;-76
2023/04/25 03:45:30;;;;;;;5.47;4.50;;;11.20;84.90;;;;;;927662;154;27849;-77
2023/04/25 03:47:56;;;;;;;5.37;4.70;;;11.10;85.00;;;;;;927607;152;27290;-77
2023/04/25 03:50:23;;;;;;;5.67;5.17;;;11.10;85.20;;;;;;926971;154;27348;-77
2023/04/25 03:52:49;;;;;;;6.20;5.03;;;11.10;85.30;;;;;;927659;152;27362;-77
2023/04/25 03:55:16;;;;;;;5.07;4.57;;;11.00;85.60;;;;;;927516;152;27302;-77
2023/04/25 03:57:43;;;;;;;6.13;5.53;;;11.00;85.90;;;;;;927017;154;27285;-77
2023/04/25 04:00:09;;;;;;;5.13;4.63;;;11.00;86.30;;;;;;927815;151;27398;-77
2023/04/25 04:02:37;;;;;;;4.70;4.30;;;11.00;86.60;;;;;;927018;152;27346;-77
2023/04/25 04:05:02;;;;;;;5.70;5.20;;;11.00;87.00;;;;;;927388;152;27364;-77
2023/04/25 04:07:29;;;;;;;6.03;5.43;;;11.00;87.20;;;;;;927084;154;27303;-77
2023/04/25 04:09:56;;;;;;;5.23;4.77;;;10.90;87.30;;;;;;919162;154;27451;-77
2023/04/25 04:12:22;;;;;;;4.70;4.30;;;10.90;87.50;;;;;;909687;153;27493;-77
2023/04/25 04:14:49;;;;;;;5.70;5.20;;;10.90;87.80;;;;;;910697;153;27510;-76
2023/04/25 04:17:15;;;;;;;5.07;4.67;;;10.90;88.00;;;;;;910566;153;27487;-76
2023/04/25 04:19:42;;;;;;;5.70;5.17;;;11.00;88.30;;;;;;911196;153;27366;-76
2023/04/25 04:22:08;;;;;;;5.63;5.13;;;11.00;88.50;;;;;;911283;153;27303;-76
2023/04/25 04:24:35;;;;;;;6.27;5.67;;;11.00;88.50;;;;;;911195;153;27458;-77
2023/04/25 04:27:02;;;;;;;6.83;6.13;;;11.00;88.60;;;;;;910249;153;27810;-76
2023/04/25 04:29:28;;;;;;;6.77;6.17;;;11.00;88.60;;;;;;911510;153;27365;-76
2023/04/25 04:31:55;;;;;;;5.40;5.00;;;11.00;88.80;;;;;;911241;153;27300;-76
2023/04/25 04:34:21;;;;;;;6.63;5.27;;;11.00;88.80;;;;;;919338;153;27369;-78
2023/04/25 04:36:48;;;;;;;5.83;5.33;;;11.00;89.10;;;;;;919737;153;27407;-78
2023/04/25 04:39:15;;;;;;;6.87;5.50;;;11.00;89.20;;;;;;920349;153;27403;-76
2023/04/25 04:41:42;;;;;;;6.37;5.77;;;11.00;88.60;;;;;;919302;153;27443;-76
2023/04/25 04:44:08;;;;;;;7.33;5.93;;;11.00;88.20;;;;;;911294;153;27332;-76
2023/04/25 04:46:41;;;;;;;8.30;5.80;;;11.00;88.10;;;;;;910569;153;27513;-76
2023/04/25 04:49:01;;;;;;;6.30;5.70;;;11.10;88.00;;;;;;909141;153;27402;-76
2023/04/25 04:51:28;;;;;;;5.53;4.97;;;11.10;87.60;;;;;;910954;153;27460;-76
2023/04/25 04:53:58;;;;;;;5.60;4.70;;;11.10;86.70;;;;;;910994;153;27826;-76
2023/04/25 04:56:23;;;;;;;5.63;4.97;;;11.10;86.10;;;;;;910776;153;27453;-77
2023/04/25 04:58:48;;;;;;;7.10;4.90;;;11.10;84.90;;;;;;910680;153;27394;-76
2023/04/25 05:01:15;;;;;;;5.90;4.87;;;11.20;85.30;;;;;;910140;153;27312;-76
2023/04/25 05:03:40;;;;;;;6.00;4.60;;;11.20;85.00;;;;;;910738;153;27456;-76
2023/04/25 05:06:08;;;;;;;7.03;4.77;;;11.30;84.90;;;;;;910969;153;27378;-76
2023/04/25 05:08:34;;;;;;;7.20;4.47;;;11.30;84.60;;;;;;910710;153;27393;-76
2023/04/25 05:11:00;;;;;;;6.03;4.90;;;11.30;84.20;;;;;;931283;152;27394;-76
2023/04/25 05:13:27;;;;;;;5.33;4.67;;;11.40;84.10;;;;;;940907;151;27341;-76
2023/04/25 05:15:53;;;;;;;7.70;5.13;;;11.40;83.90;;;;;;926568;153;27330;-76
2023/04/25 05:18:20;;;;;;;8.63;5.03;;;11.50;84.20;;;;;;928096;151;27458;-76
2023/04/25 05:20:47;;;;;;;9.40;4.83;;;11.60;84.90;;;;;;927683;153;27494;-76
2023/04/25 05:23:13;;;;;;;6.50;5.00;;;11.80;85.20;;;;;;927940;153;27338;-76
2023/04/25 05:25:40;;;;;;;5.30;4.70;;;11.90;85.30;;;;;;927420;153;27409;-76
2023/04/25 05:28:06;;;;;;;10.10;5.30;;;12.10;85.10;;;;;;926588;153;27310;-76
2023/04/25 05:30:33;;;;;;;6.20;4.63;;;12.40;84.50;;;;;;927724;153;27458;-75
2023/04/25 05:33:00;;;;;;;9.37;4.80;;;12.50;83.40;;;;;;927770;151;27333;-75
2023/04/25 05:35:26;;;;;;;7.70;4.70;;;12.70;82.30;;;;;;927049;151;27310;-76
2023/04/25 05:37:53;;;;;;;7.97;5.17;;;12.80;82.30;;;;;;927739;153;27351;-76
2023/04/25 05:40:19;;;;;;;5.20;4.40;;;12.90;81.10;;;;;;927768;153;27460;-75
2023/04/25 05:42:46;;;;;;;6.10;4.57;;;13.10;82.30;;;;;;927512;153;27369;-76
2023/04/25 05:45:12;;;;;;;5.87;4.33;;;13.30;82.50;;;;;;927736;153;27302;-75
2023/04/25 05:47:39;;;;;;;5.58;4.20;;;13.50;83.70;;;;;;927652;153;28010;-76
2023/04/25 05:50:06;;;;;;;6.72;4.37;;;13.90;84.00;;;;;;928049;153;27466;-76
2023/04/25 05:52:32;;;;;;;5.50;4.08;;;14.30;83.60;;;;;;938828;152;27349;-76
2023/04/25 05:54:59;;;;;;;6.40;4.15;;;14.70;82.60;;;;;;922114;152;27462;-76
2023/04/25 05:57:26;;;;;;;4.80;4.05;;;15.10;81.80;;;;;;937767;149;27289;-76
2023/04/25 05:59:52;;;;;;;4.55;4.08;;;15.50;79.00;;;;;;915569;153;27358;-85
2023/04/25 06:02:19;;;;;;;6.00;3.90;;;15.80;77.80;;;;;;927327;152;27422;-85
2023/04/25 06:04:45;;;;;;;7.58;4.40;;;16.10;77.10;;;;;;938327;152;27363;-81
2023/04/25 06:07:12;;;;;;;4.80;4.30;;;16.50;77.10;;;;;;937578;152;27439;-81
2023/04/25 06:09:39;;;;;;;6.30;4.25;;;16.90;77.20;;;;;;924253;152;27450;-81
2023/04/25 06:12:05;;;;;;;4.35;3.35;;;17.30;76.50;;;;;;942949;148;27373;-81
2023/04/25 06:14:32;;;;;;;5.17;3.90;;;17.70;75.70;;;;;;927798;149;27369;-82
2023/04/25 06:16:58;;;;;;;4.95;3.90;;;18.20;74.30;;;;;;939183;149;27376;-80
2023/04/25 06:19:25;;;;;;;4.62;3.85;;;18.60;72.30;;;;;;943518;148;27318;-79
2023/04/25 06:21:51;;;;;;;4.78;3.65;;;19.00;70.40;;;;;;941144;149;27278;-85
2023/04/25 06:24:18;;;;;;;4.33;3.80;;;19.20;69.00;;;;;;941506;149;27302;-79
2023/04/25 06:26:45;;;;;;;5.33;3.40;;;19.50;69.10;;;;;;940450;149;27448;-80
2023/04/25 06:29:11;;;;;;;4.60;3.05;;;19.70;68.60;;;;;;943775;148;27442;-80
2023/04/25 06:31:38;;;;;;;2.72;2.52;;;19.90;67.20;;;;;;932607;150;27363;-80
2023/04/25 06:34:04;;;;;;;5.80;3.10;;;20.20;66.40;;;;;;940964;149;27329;-80
2023/04/25 06:36:31;;;;;;;4.17;2.90;;;20.40;65.50;;;;;;941483;149;27357;-80
2023/04/25 06:38:58;;;;;;;4.00;2.70;;;20.50;63.90;;;;;;942175;149;27381;-80
2023/04/25 06:41:24;;;;;;;3.80;2.45;;;20.60;62.70;;;;;;941904;149;27394;-77
2023/04/25 06:43:51;;;;;;;3.95;2.42;;;20.60;61.90;;;;;;940953;149;27410;-80
2023/04/25 06:46:17;;;;;;;5.60;2.90;;;20.50;61.00;;;;;;941065;149;27504;-79
2023/04/25 06:48:44;;;;;;;3.72;2.55;;;20.30;60.20;;;;;;941263;149;27365;-78
2023/04/25 06:51:11;;;;;;;2.92;2.17;;;20.20;59.90;;;;;;940612;149;27349;-78
2023/04/25 06:53:38;;;;;;;2.60;2.02;;;20.00;59.80;;;;;;940560;149;27399;-78
2023/04/25 06:56:05;;;;;;;4.08;2.05;;;19.80;59.80;;;;;;940465;149;27357;-78
2023/04/25 06:58:32;;;;;;;4.72;1.80;;;19.50;59.60;;;;;;940662;149;27309;-82
2023/04/25 07:00:58;;;;;;;2.33;2.12;;;19.30;59.30;;;;;;944488;148;27289;-83
2023/04/25 07:03:25;;;;;;;4.67;2.37;;;19.20;59.30;;;;;;927146;150;27484;-82
2023/04/25 07:05:51;;;;;;;4.65;2.30;;;18.90;59.10;;;;;;926151;150;27452;-81
2023/04/25 07:08:18;;;;;;;3.50;2.22;;;18.70;59.10;;;;;;944071;148;27395;-82
2023/04/25 07:10:45;;;;;;;2.47;1.90;;;18.50;59.30;;;;;;945267;148;27246;-81
2023/04/25 07:13:11;;;;;;;3.40;2.08;;;18.40;60.10;;;;;;943651;148;27327;-82
2023/04/25 07:15:38;;;;;;;5.40;3.60;;;18.60;62.10;;;;;;928818;152;27483;-82
2023/04/25 07:18:04;;;;;;;1.87;1.77;;;19.00;64.00;;;;;;948685;147;27307;-82
2023/04/25 07:20:32;;;;;;;2.17;1.98;;;19.60;65.20;;;;;;940097;150;27336;-82
2023/04/25 07:22:57;;;;;;;3.42;2.30;;;20.40;65.90;;;;;;943762;148;27314;-82
2023/04/25 07:25:24;;;;;;;3.52;2.50;;;21.30;65.40;;;;;;932942;149;27409;-82
2023/04/25 07:27:51;;;;;;;2.60;1.87;;;22.30;64.10;;;;;;937540;150;27355;-83
2023/04/25 07:30:18;;;;;;;2.85;2.15;;;23.30;62.30;;;;;;937579;150;27327;-83
2023/04/25 07:32:45;;;;;;;3.37;2.00;;;24.20;60.60;;;;;;924439;150;27437;-83
2023/04/25 07:35:10;;;;;;;4.47;2.08;;;25.00;59.30;;;;;;924550;151;27354;-84
2023/04/25 07:37:37;;;;;;;2.40;2.10;;;25.70;58.00;;;;;;937077;149;27400;-84
2023/04/25 07:40:04;;;;;;;3.25;2.08;;;26.30;56.30;;;;;;925369;150;27375;-84
2023/04/25 07:42:30;;;;;;;2.45;1.90;;;26.70;55.00;;;;;;940931;151;27456;-84
2023/04/25 07:44:57;;;;;;;2.40;2.20;;;27.10;53.60;;;;;;939328;151;27305;-83
2023/04/25 07:47:23;;;;;;;3.55;2.30;;;27.30;52.60;;;;;;940091;150;27332;-84
2023/04/25 07:49:50;;;;;;;3.30;2.33;;;27.50;51.90;;;;;;938362;151;27329;-83
2023/04/25 07:52:17;;;;;;;3.45;2.00;;;27.60;51.40;;;;;;939208;151;27390;-83
2023/04/25 07:54:43;;;;;;;2.20;1.82;;;27.70;50.80;;;;;;938627;152;27407;-82
2023/04/25 07:57:10;;;;;;;2.30;2.02;;;27.70;50.50;;;;;;943660;148;27415;-84
2023/04/25 07:59:36;;;;;;;4.15;2.42;;;27.80;50.00;;;;;;944625;148;27342;-83
2023/04/25 08:02:03;;;;;;;1.98;1.85;;;27.90;49.50;;;;;;939376;150;27362;-83
2023/04/25 08:04:29;;;;;;;3.52;2.00;;;28.00;49.30;;;;;;942539;147;27280;-83
2023/04/25 08:06:56;;;;;;;2.75;2.10;;;28.10;49.30;;;;;;929090;150;27285;-82
2023/04/25 08:09:23;;;;;;;2.25;2.05;;;28.40;49.60;;;;;;944036;148;27494;-82
2023/04/25 08:11:49;;;;;;;2.22;1.90;;;28.80;49.50;;;;;;944478;148;27397;-84
2023/04/25 08:14:16;;;;;;;2.37;1.70;;;29.10;49.10;;;;;;939498;150;27883;-83
2023/04/25 08:16:43;;;;;;;2.98;2.00;;;29.30;47.90;;;;;;943019;148;26250;-83
2023/04/25 08:19:09;;;;;;;3.27;2.20;;;29.50;46.70;;;;;;942908;148;27659;-82
2023/04/25 08:21:36;;;;;;;2.20;2.00;;;29.60;46.30;;;;;;942960;149;27442;-82
2023/04/25 08:24:02;;;;;;;2.45;1.90;;;29.70;46.30;;;;;;940225;147;27334;-83
2023/04/25 08:26:29;;;;;;;3.30;2.15;;;29.80;46.10;;;;;;928927;150;27430;-84
2023/04/25 08:28:55;;;;;;;2.75;1.85;;;30.00;45.90;;;;;;925834;150;27337;-85
2023/04/25 08:31:22;;;;;;;3.87;1.90;;;30.20;45.20;;;;;;932679;149;27340;-86
2023/04/25 08:33:51;;;;;;;3.80;1.87;;;30.30;44.30;;;;;;940042;150;27363;-85
2023/04/25 08:36:15;;;;;;;2.65;1.85;;;30.40;44.30;;;;;;943126;148;27417;-85
2023/04/25 08:38:42;;;;;;;2.00;1.70;;;30.50;44.30;;;;;;920358;152;27349;-85
2023/04/25 08:41:08;;;;;;;2.98;1.85;;;30.50;43.70;;;;;;938292;150;27291;-85
2023/04/25 08:43:35;;;;;;;2.50;2.12;;;30.60;43.50;;;;;;943581;148;27796;-84
2023/04/25 08:46:02;;;;;;;3.37;1.95;;;30.70;43.80;;;;;;943369;148;27335;-84
2023/04/25 08:48:30;;;;;;;3.15;1.80;;;31.00;43.80;;;;;;939284;150;27338;-84
2023/04/25 08:50:55;;;;;;;3.33;2.20;;;31.10;43.30;;;;;;929922;150;27332;-83
2023/04/25 08:53:27;;;;;;;2.37;2.00;;;31.10;41.00;;;;;;940715;149;27383;-83
2023/04/25 08:55:56;;;;;;;3.95;2.10;;;30.80;40.30;;;;;;921282;151;27461;-83
2023/04/25 08:58:23;;;;;;;2.20;2.00;;;30.20;39.20;;;;;;944607;147;27292;-83
2023/04/25 09:00:50;;;;;;;2.83;2.20;;;29.60;39.20;;;;;;946424;148;27311;-83
2023/04/25 09:03:16;;;;;;;3.08;2.25;;;29.00;39.80;;;;;;943639;148;27430;-83
2023/04/25 09:05:43;;;;;;;3.90;2.30;;;28.70;41.10;;;;;;943372;148;27444;-83
2023/04/25 09:08:10;;;;;;;2.37;1.98;;;28.50;42.00;;;;;;943958;148;27272;-83
2023/04/25 09:10:36;;;;;;;4.37;2.17;;;28.60;42.40;;;;;;936670;150;27361;-83
2023/04/25 09:13:06;;;;;;;2.17;1.95;;;28.80;42.50;;;;;;938513;148;27452;-83
2023/04/25 09:15:32;;;;;;;2.62;2.05;;;29.00;42.70;;;;;;936764;148;27362;-84
2023/04/25 09:17:59;;;;;;;2.40;2.20;;;29.30;42.40;;;;;;928552;149;26237;-84
2023/04/25 09:20:25;;;;;;;2.62;2.02;;;29.40;41.20;;;;;;929418;149;27321;-85
2023/04/25 09:23:04;;;;;;;3.70;2.22;;;29.30;39.80;;;;;;927207;149;27369;-85
2023/04/25 09:25:30;;;;;;;3.47;2.15;;;29.00;39.20;;;;;;929037;149;27482;-85
2023/04/25 09:27:57;;;;;;;2.37;1.90;;;28.50;39.00;;;;;;928698;149;27443;-84
2023/04/25 09:30:30;;;;;;;2.47;2.20;;;28.00;38.70;;;;;;929867;149;27738;-84
2023/04/25 09:33:06;;;;;;;2.15;1.95;;;27.40;39.00;;;;;;929620;149;27412;-84
2023/04/25 09:35:32;;;;;;;2.58;2.37;;;26.70;39.10;;;;;;930396;149;27397;-84
2023/04/25 09:37:58;;;;;;;4.33;2.37;;;26.00;39.30;;;;;;928260;149;27442;-84
2023/04/25 09:40:25;;;;;;;2.80;2.60;;;25.30;39.30;;;;;;937400;148;27396;-84
2023/04/25 09:42:52;;;;;;;3.17;2.33;;;24.60;39.70;;;;;;921738;150;27449;-84
2023/04/25 09:45:19;;;;;;;3.45;2.72;;;23.90;40.20;;;;;;942719;147;27238;-84
2023/04/25 09:47:45;;;;;;;3.77;2.37;;;23.30;40.60;;;;;;921839;152;27385;-84
2023/04/25 09:50:15;;;;;;;2.75;2.25;;;22.70;41.10;;;;;;924091;150;27357;-83
2023/04/25 09:52:41;;;;;;;4.30;3.47;;;22.10;41.60;;;;;;926834;150;27367;-84
2023/04/25 09:55:08;;;;;;;3.02;2.67;;;21.60;42.40;;;;;;937638;148;27327;-83
2023/04/25 09:57:35;;;;;;;4.85;2.67;;;21.20;43.10;;;;;;937755;148;27303;-84
2023/04/25 10:00:04;;;;;;;2.47;2.15;;;20.80;43.50;;;;;;937417;150;27435;-85
2023/04/25 10:02:27;;;;;;;3.30;2.25;;;20.50;43.80;;;;;;930093;149;27455;-84
2023/04/25 10:04:54;;;;;;;2.60;2.40;;;20.30;44.30;;;;;;919603;151;27329;-85
2023/04/25 10:07:25;;;;;;;2.40;2.20;;;20.00;44.70;;;;;;923803;150;27352;-84
2023/04/25 10:09:50;;;;;;;3.72;2.30;;;19.90;45.20;;;;;;929551;149;27437;-84
2023/04/25 10:12:17;;;;;;;3.00;2.30;;;19.80;45.30;;;;;;928202;149;27447;-85
2023/04/25 10:14:43;;;;;;;2.17;1.98;;;19.70;45.50;;;;;;943738;149;27377;-84
2023/04/25 10:17:10;;;;;;;2.60;2.37;;;19.60;45.80;;;;;;943354;149;27328;-84
2023/04/25 10:19:37;;;;;;;3.95;2.65;;;19.60;46.00;;;;;;943102;149;27310;-84
2023/04/25 10:22:03;;;;;;;3.00;2.50;;;19.60;46.20;;;;;;940061;149;27467;-85
2023/04/25 10:24:30;;;;;;;4.10;2.12;;;19.50;46.10;;;;;;940779;149;27443;-84
2023/04/25 10:26:56;;;;;;;2.42;2.22;;;19.50;46.20;;;;;;940980;149;27330;-85
2023/04/25 10:29:25;;;;;;;3.65;2.33;;;19.40;46.20;;;;;;941438;149;27342;-84
2023/04/25 10:31:52;;;;;;;2.30;2.10;;;19.40;46.10;;;;;;943733;148;27719;-84
2023/04/25 10:34:19;;;;;;;3.15;2.10;;;19.30;46.20;;;;;;924142;151;27359;-84
2023/04/25 10:36:53;;;;;;;2.55;2.33;;;19.20;46.20;;;;;;943636;148;27288;-84
2023/04/25 10:39:26;;;;;;;2.50;2.35;;;19.20;46.20;;;;;;938334;150;27382;-84
2023/04/25 10:41:58;;;;;;;3.22;2.08;;;19.10;46.30;;;;;;938668;150;27373;-84
2023/04/25 10:44:31;;;;;;;2.85;2.30;;;18.90;46.30;;;;;;938215;150;27350;-84
2023/04/25 10:47:01;;;;;;;2.65;2.10;;;18.80;46.30;;;;;;937416;150;27432;-83
2023/04/25 10:49:33;;;;;;;2.85;2.35;;;18.70;46.50;;;;;;938109;150;27358;-84
2023/04/25 10:52:14;;;;;;;2.35;1.90;;;18.60;46.80;;;;;;944765;148;27345;-84
2023/04/25 10:54:47;;;;;;;2.72;2.12;;;18.50;47.20;;;;;;928539;150;27355;-84
2023/04/25 10:57:31;;;;;;;3.58;2.40;;;18.50;47.30;;;;;;943006;148;27332;-84
2023/04/25 10:59:55;;;;;;;4.25;2.90;;;18.50;47.30;;;;;;947253;147;27741;-84
2023/04/25 11:02:21;;;;;;;3.02;2.80;;;18.50;47.30;;;;;;931285;150;27429;-84
2023/04/25 11:04:48;;;;;;;2.80;2.15;;;18.40;47.20;;;;;;944254;147;27283;-84
2023/04/25 11:07:14;;;;;;;2.67;2.42;;;18.30;47.10;;;;;;941308;149;27319;-84
2023/04/25 11:09:41;;;;;;;4.53;2.87;;;18.20;47.00;;;;;;939972;149;27432;-84
2023/04/25 11:12:11;;;;;;;3.52;2.90;;;18.00;46.90;;;;;;941727;149;27421;-84
2023/04/25 11:14:37;;;;;;;3.42;2.83;;;17.70;47.00;;;;;;942264;148;27298;-84
2023/04/25 11:17:03;;;;;;;4.35;2.70;;;17.50;47.20;;;;;;942207;151;27324;-84
2023/04/25 11:19:30;;;;;;;3.33;2.25;;;17.30;47.50;;;;;;927512;151;27371;-84
2023/04/25 11:21:56;;;;;;;2.37;2.17;;;17.10;47.70;;;;;;928191;152;27380;-84
2023/04/25 11:24:26;;;;;;;2.37;2.17;;;16.90;48.10;;;;;;927660;153;27346;-83
2023/04/25 11:26:52;;;;;;;2.92;2.50;;;16.70;48.30;;;;;;931120;153;27454;-84
2023/04/25 11:29:19;;;;;;;2.58;2.37;;;16.50;48.60;;;;;;936288;151;27697;-84
2023/04/25 11:31:46;;;;;;;3.10;2.80;;;16.30;48.80;;;;;;923202;151;27719;-84
2023/04/25 11:34:12;;;;;;;4.90;3.15;;;16.30;49.20;;;;;;928372;153;28175;-84
2023/04/25 11:36:39;;;;;;;2.80;2.60;;;16.20;49.40;;;;;;926593;152;27295;-83
2023/04/25 11:39:05;;;;;;;4.33;2.40;;;16.10;49.80;;;;;;945096;151;27425;-84
2023/04/25 11:41:32;;;;;;;2.60;2.40;;;16.10;50.10;;;;;;945175;151;27427;-84
2023/04/25 11:43:59;;;;;;;2.50;2.30;;;16.10;50.20;;;;;;930166;154;27478;-84
2023/04/25 11:46:26;;;;;;;4.03;2.37;;;16.20;50.40;;;;;;931199;153;27270;-84
2023/04/25 11:48:52;;;;;;;2.98;2.62;;;16.20;50.50;;;;;;928296;152;27334;-84
2023/04/25 11:51:18;;;;;;;2.80;2.42;;;16.30;50.50;;;;;;941943;152;27329;-83
2023/04/25 11:53:45;;;;;;;2.12;1.98;;;16.40;50.40;;;;;;941003;149;27349;-83
2023/04/25 11:56:11;;;;;;;2.00;1.77;;;16.50;50.30;;;;;;928907;153;27391;-83
2023/04/25 11:59:02;;;;;;;1.92;1.77;;;16.50;50.10;;;;;;930821;154;27397;-84
2023/04/25 12:01:32;;;;;;;2.10;1.90;;;16.70;50.10;;;;;;930073;154;27325;-84
2023/04/25 12:03:58;;;;;;;3.58;2.15;;;16.80;50.10;;;;;;930231;153;27344;-83
2023/04/25 12:06:28;;;;;;;2.02;1.80;;;17.00;50.20;;;;;;926103;154;27350;-84
2023/04/25 12:09:04;;;;;;;4.35;2.00;;;17.00;50.00;;;;;;941131;151;27353;-84
2023/04/25 12:11:31;;;;;;;2.27;2.02;;;17.20;49.90;;;;;;926525;152;27334;-83
2023/04/25 12:13:57;;;;;;;1.72;1.62;;;17.40;49.70;;;;;;932294;151;27333;-83
2023/04/25 12:16:24;;;;;;;2.25;1.90;;;17.50;49.40;;;;;;946227;148;27446;-84
2023/04/25 12:18:51;;;;;;;1.90;1.80;;;17.50;49.10;;;;;;940985;149;27365;-83
2023/04/25 12:21:17;;;;;;;2.27;1.80;;;17.60;48.90;;;;;;941394;149;27355;-85
2023/04/25 12:23:44;;;;;;;3.35;1.82;;;17.50;48.60;;;;;;943302;148;27388;-83
2023/04/25 12:26:11;;;;;;;2.37;1.92;;;17.50;48.50;;;;;;937969;150;27320;-83
2023/04/25 12:28:37;;;;;;;3.15;2.77;;;17.40;48.50;;;;;;944317;148;27544;-83
2023/04/25 12:31:04;;;;;;;2.08;1.70;;;17.30;48.50;;;;;;944023;148;27330;-83
2023/04/25 12:33:30;;;;;;;2.10;1.90;;;17.20;48.70;;;;;;938228;150;27323;-83
2023/04/25 12:35:57;;;;;;;2.40;1.90;;;17.10;48.60;;;;;;938628;150;27306;-83
2023/04/25 12:38:26;;;;;;;2.77;1.65;;;17.00;48.70;;;;;;938664;150;27315;-83
2023/04/25 12:40:52;;;;;;;4.28;2.45;;;17.00;48.80;;;;;;943596;148;27354;-83
2023/04/25 12:43:19;;;;;;;2.10;1.80;;;16.90;48.90;;;;;;943695;148;27301;-83
2023/04/25 12:45:46;;;;;;;2.55;1.80;;;16.80;49.00;;;;;;943848;148;27326;-83